Time;durP1;ratioP1;P1;durP2;ratioP2;P2;SDS_P1;SDS_P2;PMS_P1;PMS_P2;Temp;Humidity;BMP_temperature;BMP_pressure;BME280_temperature;BME280_humidity;BME280_pressure;Samples;Min_cycle;Max_cycle;Signal;HPM_P1;HPM_P2
2022/01/22 00:00:51;;;;;;;8.27;4.75;;;1.10;99.90;;;;;;5228717;28;20036;-74
2022/01/22 00:03:21;;;;;;;10.43;5.38;;;0.90;99.90;;;;;;5228810;28;20055;-73
2022/01/22 00:05:52;;;;;;;10.45;5.60;;;1.00;99.90;;;;;;5228727;28;20021;-73
2022/01/22 00:08:23;;;;;;;10.75;5.35;;;1.20;99.90;;;;;;5228858;28;20021;-75
2022/01/22 00:10:54;;;;;;;7.50;4.50;;;1.10;99.90;;;;;;5228496;28;20448;-74
2022/01/22 00:16:16;;;;;;;5.55;3.30;;;1.20;99.90;;;;;;5229083;28;20044;-73
2022/01/22 00:18:47;;;;;;;4.80;2.22;;;0.90;99.90;;;;;;5211064;28;20407;-74
2022/01/22 00:21:17;;;;;;;4.38;2.42;;;1.10;99.90;;;;;;5228464;28;20037;-74
2022/01/22 00:23:54;;;;;;;9.35;3.97;;;1.00;99.90;;;;;;5228673;28;20110;-74
2022/01/22 00:26:25;;;;;;;10.50;3.63;;;1.00;99.90;;;;;;5228340;28;20021;-74
2022/01/22 00:28:56;;;;;;;4.72;2.83;;;1.10;99.90;;;;;;5228319;28;20431;-74
2022/01/22 00:31:27;;;;;;;7.15;3.83;;;0.90;99.90;;;;;;5228314;28;20025;-74
2022/01/22 00:33:58;;;;;;;6.32;2.50;;;1.00;99.90;;;;;;5227989;28;20590;-73
2022/01/22 00:36:29;;;;;;;3.15;2.00;;;1.10;99.90;;;;;;5228085;28;20104;-74
2022/01/22 00:39:00;;;;;;;4.97;1.73;;;1.10;99.90;;;;;;5228432;28;20032;-74
2022/01/22 00:41:31;;;;;;;4.22;1.85;;;0.80;99.90;;;;;;5228259;28;20025;-73
2022/01/22 00:44:02;;;;;;;3.88;1.10;;;0.90;99.90;;;;;;5228130;28;20033;-74
2022/01/22 00:46:33;;;;;;;4.70;1.20;;;0.60;99.90;;;;;;5228270;28;20015;-73
2022/01/22 00:49:04;;;;;;;1.85;0.90;;;1.00;99.90;;;;;;5228091;28;20029;-74
2022/01/22 00:51:39;;;;;;;2.63;0.95;;;1.00;99.90;;;;;;5227998;28;20108;-74
2022/01/22 00:54:13;;;;;;;2.25;1.23;;;0.80;99.90;;;;;;5228402;28;20028;-74
2022/01/22 00:56:48;;;;;;;2.80;1.15;;;0.80;99.90;;;;;;5226607;28;20411;-74
2022/01/22 00:59:27;;;;;;;4.55;1.40;;;0.90;99.90;;;;;;5228259;28;20033;-74
2022/01/22 01:02:03;;;;;;;3.42;0.98;;;0.90;99.90;;;;;;5215732;28;20472;-74
2022/01/22 01:04:35;;;;;;;2.25;1.50;;;1.00;99.90;;;;;;5248187;28;20036;-73
2022/01/22 01:07:06;;;;;;;2.08;1.20;;;0.90;99.90;;;;;;5248397;28;20021;-74
2022/01/22 01:09:39;;;;;;;4.97;1.30;;;0.90;99.90;;;;;;5248583;28;20036;-73
2022/01/22 01:12:12;;;;;;;2.67;1.20;;;1.10;99.90;;;;;;5248642;28;20017;-73
2022/01/22 01:14:52;;;;;;;3.65;2.17;;;1.20;99.90;;;;;;5248784;28;20083;-74
2022/01/22 01:34:18;;;;;;;8.63;2.92;;;1.10;99.90;;;;;;5248311;28;20425;-73
2022/01/22 01:36:49;;;;;;;5.30;2.63;;;0.90;99.90;;;;;;5248506;28;20460;-74
2022/01/22 01:39:28;;;;;;;8.30;2.30;;;1.00;99.90;;;;;;5248585;28;20020;-73
2022/01/22 01:42:07;;;;;;;4.90;2.58;;;1.10;99.90;;;;;;5248273;28;20081;-73
2022/01/22 01:44:39;;;;;;;3.50;1.95;;;1.00;99.90;;;;;;5249076;28;20365;-73
2022/01/22 01:47:13;;;;;;;3.83;2.58;;;1.00;99.90;;;;;;5252372;28;20039;-73
2022/01/22 01:49:45;;;;;;;4.28;2.17;;;1.00;99.90;;;;;;5252316;28;20040;-74
2022/01/22 01:52:23;;;;;;;5.22;2.75;;;1.00;99.90;;;;;;5252076;28;20367;-74
2022/01/22 01:55:08;;;;;;;4.63;2.20;;;0.70;99.90;;;;;;5252079;28;20078;-73
2022/01/22 01:57:41;;;;;;;7.15;2.55;;;1.00;99.90;;;;;;5252279;28;20452;-73
2022/01/22 02:00:22;;;;;;;8.93;2.78;;;1.10;99.90;;;;;;5251898;28;20368;-73
2022/01/22 02:02:53;;;;;;;;;;;1.00;99.90;;;;;;5239431;28;20044;-74
2022/01/22 02:05:25;;;;;;;4.55;1.98;;;1.00;99.90;;;;;;5231249;28;19952;-73
2022/01/22 02:07:55;;;;;;;2.45;1.50;;;0.80;99.90;;;;;;5231126;28;20384;-73
2022/01/22 02:10:30;;;;;;;3.38;1.60;;;0.90;99.90;;;;;;5231145;28;20021;-73
2022/01/22 02:24:02;;;;;;;3.40;1.50;;;1.30;99.90;;;;;;5230986;28;20456;-73
2022/01/22 02:26:34;;;;;;;3.58;1.50;;;1.20;99.90;;;;;;5230733;28;20456;-73
2022/01/22 02:29:06;;;;;;;3.75;1.73;;;0.90;99.90;;;;;;5230710;28;20039;-73
2022/01/22 02:31:42;;;;;;;2.63;1.10;;;1.10;99.90;;;;;;5230472;28;20424;-73
2022/01/22 02:34:20;;;;;;;3.40;1.38;;;0.90;99.90;;;;;;5230699;28;20029;-73
2022/01/22 02:37:01;;;;;;;2.83;1.63;;;1.10;99.90;;;;;;5230433;28;20074;-73
2022/01/22 02:39:41;;;;;;;4.68;2.05;;;0.90;99.90;;;;;;5230551;28;20033;-73
2022/01/22 02:42:13;;;;;;;3.47;1.75;;;1.10;99.90;;;;;;5230714;28;20021;-73
2022/01/22 02:44:46;;;;;;;4.07;1.73;;;1.00;99.90;;;;;;5230381;28;20051;-72
2022/01/22 02:47:18;;;;;;;4.63;1.75;;;1.00;99.90;;;;;;5230334;28;20025;-73
2022/01/22 02:49:49;;;;;;;2.97;1.38;;;0.70;99.90;;;;;;5230388;28;20112;-73
2022/01/22 02:52:20;;;;;;;3.33;1.48;;;0.80;99.90;;;;;;5230286;28;20108;-73
2022/01/22 02:54:51;;;;;;;4.50;1.42;;;0.90;99.90;;;;;;5230297;28;20059;-73
2022/01/22 02:57:23;;;;;;;3.75;1.67;;;0.90;99.90;;;;;;5229639;28;20021;-73
2022/01/22 02:59:54;;;;;;;6.18;2.35;;;0.90;99.90;;;;;;5230125;28;20049;-74
2022/01/22 03:02:25;;;;;;;9.18;3.47;;;0.90;99.90;;;;;;5229637;28;20099;-73
2022/01/22 03:04:56;;;;;;;6.43;3.58;;;0.70;99.90;;;;;;5229977;28;20025;-73
2022/01/22 03:07:26;;;;;;;10.38;4.00;;;0.70;99.90;;;;;;5230126;28;20112;-73
2022/01/22 03:10:01;;;;;;;8.75;4.22;;;0.90;99.90;;;;;;5230270;28;20029;-73
2022/01/22 03:15:35;;;;;;;10.90;5.78;;;1.10;99.90;;;;;;5230085;28;20033;-73
2022/01/22 03:18:12;;;;;;;13.50;5.85;;;0.90;99.90;;;;;;5229939;28;20461;-73
2022/01/22 03:31:37;;;;;;;12.75;6.07;;;1.00;99.90;;;;;;5229599;28;20039;-73
2022/01/22 03:34:09;;;;;;;14.10;6.75;;;0.80;99.90;;;;;;5229943;28;20403;-73
2022/01/22 03:36:40;;;;;;;14.93;5.88;;;0.80;99.90;;;;;;5229441;28;20029;-73
2022/01/22 03:39:11;;;;;;;10.73;6.47;;;0.60;99.90;;;;;;5229527;28;20074;-73
2022/01/22 03:41:41;;;;;;;11.63;7.10;;;0.70;99.90;;;;;;5229251;28;20036;-73
2022/01/22 03:44:13;;;;;;;18.95;7.60;;;1.00;99.90;;;;;;5229294;28;20029;-73
2022/01/22 03:46:44;;;;;;;15.70;7.22;;;1.00;99.90;;;;;;5229316;28;20449;-73
2022/01/22 03:49:16;;;;;;;16.63;7.13;;;0.90;99.90;;;;;;5229167;28;20029;-73
2022/01/22 03:51:47;;;;;;;13.65;7.75;;;0.80;99.90;;;;;;5229007;28;20032;-73
2022/01/22 03:54:17;;;;;;;13.93;7.55;;;0.80;99.90;;;;;;5229068;28;20020;-73
2022/01/22 03:56:49;;;;;;;21.65;8.25;;;0.70;99.90;;;;;;5229023;28;20107;-73
2022/01/22 03:59:20;;;;;;;15.40;8.38;;;0.80;99.90;;;;;;5228762;28;20021;-73
2022/01/22 04:02:19;;;;;;;18.45;8.25;;;0.70;99.90;;;;;;5228548;28;20057;-73
2022/01/22 04:04:54;;;;;;;19.23;9.23;;;0.50;99.90;;;;;;5228972;28;20507;-73
2022/01/22 04:07:54;;;;;;;16.52;8.43;;;0.80;99.90;;;;;;5228125;28;20056;-73
2022/01/22 04:10:17;;;;;;;22.05;8.50;;;0.60;99.90;;;;;;5228551;28;20063;-73
2022/01/22 04:15:26;;;;;;;22.23;8.70;;;0.70;99.90;;;;;;5228846;28;20056;-73
2022/01/22 04:28:58;;;;;;;20.08;10.05;;;0.90;99.90;;;;;;5228515;28;20028;-73
2022/01/22 04:31:29;;;;;;;23.85;12.32;;;0.80;99.90;;;;;;5228406;28;20033;-73
2022/01/22 04:34:00;;;;;;;24.98;11.95;;;0.80;99.90;;;;;;5228396;28;20028;-73
2022/01/22 04:36:31;;;;;;;27.70;12.50;;;0.60;99.90;;;;;;5228272;28;20461;-73
2022/01/22 04:39:02;;;;;;;23.85;12.63;;;0.60;99.90;;;;;;5228681;28;20132;-73
2022/01/22 04:41:33;;;;;;;25.70;13.25;;;0.70;99.90;;;;;;5228165;28;20423;-73
2022/01/22 04:44:06;;;;;;;28.55;13.63;;;0.70;99.90;;;;;;5227980;28;20430;-73
2022/01/22 04:55:03;;;;;;;28.35;14.88;;;0.90;99.90;;;;;;5228470;28;20036;-73
2022/01/22 04:57:37;;;;;;;29.08;14.25;;;0.90;99.90;;;;;;5227956;28;20133;-73
2022/01/22 05:00:14;;;;;;;29.33;14.48;;;0.80;99.90;;;;;;5228226;28;20017;-73
2022/01/22 05:02:44;;;;;;;33.92;14.73;;;0.90;99.90;;;;;;5227601;28;20064;-73
2022/01/22 05:05:16;;;;;;;27.70;14.30;;;0.60;99.90;;;;;;5227991;28;20021;-74
2022/01/22 05:07:46;;;;;;;25.05;13.88;;;0.50;99.90;;;;;;5228033;28;20029;-73
2022/01/22 05:10:17;;;;;;;29.90;14.65;;;0.50;99.90;;;;;;5228000;28;20020;-73
2022/01/22 05:12:49;;;;;;;26.92;13.90;;;0.50;99.90;;;;;;5228006;28;20466;-73
2022/01/22 05:15:20;;;;;;;24.40;13.60;;;0.70;99.90;;;;;;5227808;28;20485;-73
2022/01/22 05:17:51;;;;;;;28.88;14.30;;;0.80;99.90;;;;;;5227735;28;20025;-73
2022/01/22 05:20:28;;;;;;;26.30;14.25;;;0.80;99.90;;;;;;5231072;28;20021;-73
2022/01/22 05:23:10;;;;;;;29.17;14.13;;;0.40;99.90;;;;;;5232127;28;20422;-73
2022/01/22 05:25:50;;;;;;;28.98;14.50;;;0.20;99.90;;;;;;5231936;28;20036;-73
2022/01/22 05:37:11;;;;;;;29.40;15.10;;;0.50;99.90;;;;;;5168581;28;20033;-73
2022/01/22 05:39:42;;;;;;;25.90;14.43;;;0.60;99.90;;;;;;5211699;28;20412;-72
2022/01/22 05:42:13;;;;;;;25.35;13.68;;;0.50;99.90;;;;;;5231258;28;20033;-72
2022/01/22 05:44:44;;;;;;;25.67;12.50;;;0.20;99.90;;;;;;5231100;28;20024;-74
2022/01/22 05:47:21;;;;;;;25.98;14.43;;;0.20;99.90;;;;;;5231839;28;20039;-73
2022/01/22 05:49:53;;;;;;;32.10;14.38;;;0.30;99.90;;;;;;5231692;28;20036;-73
2022/01/22 05:52:32;;;;;;;22.10;12.95;;;0.20;99.90;;;;;;5231485;28;20017;-73
2022/01/22 05:55:39;;;;;;;26.48;12.93;;;0.30;99.90;;;;;;5231281;28;20064;-73
2022/01/22 06:00:53;;;;;;;25.05;12.95;;;0.40;99.90;;;;;;5231609;28;20269;-73
2022/01/22 06:03:23;;;;;;;26.08;13.15;;;0.40;99.90;;;;;;5230807;28;20080;-73
2022/01/22 06:05:54;;;;;;;22.08;12.88;;;0.60;99.90;;;;;;5231059;28;20487;-73
2022/01/22 06:08:30;;;;;;;24.95;11.50;;;0.50;99.90;;;;;;5231064;28;20521;-72
2022/01/22 06:11:08;;;;;;;22.45;12.70;;;0.50;99.90;;;;;;5231318;28;20071;-73
2022/01/22 06:13:46;;;;;;;22.65;11.27;;;0.60;99.90;;;;;;5231101;28;20037;-73
2022/01/22 06:16:20;;;;;;;17.77;10.52;;;0.70;99.90;;;;;;5231186;28;20421;-73
2022/01/22 06:18:51;;;;;;;17.30;9.38;;;0.80;99.90;;;;;;5230844;28;20055;-73
2022/01/22 06:21:22;;;;;;;13.27;7.38;;;0.60;99.90;;;;;;5230650;28;20104;-74
2022/01/22 06:23:53;;;;;;;14.10;8.02;;;0.60;99.90;;;;;;5230945;28;20475;-73
2022/01/22 06:26:24;;;;;;;14.85;7.38;;;0.60;99.90;;;;;;5230859;28;20398;-73
2022/01/22 06:28:55;;;;;;;13.20;8.07;;;0.60;99.90;;;;;;5230631;28;20044;-73
2022/01/22 06:31:25;;;;;;;23.67;12.93;;;0.50;99.90;;;;;;5229756;28;20033;-73
2022/01/22 06:33:58;;;;;;;25.77;13.38;;;0.50;99.90;;;;;;5230548;28;20104;-73
2022/01/22 06:36:29;;;;;;;16.38;10.38;;;0.50;99.90;;;;;;5230505;28;20043;-72
2022/01/22 06:39:12;;;;;;;19.13;10.20;;;0.40;99.90;;;;;;5230668;28;20340;-72
2022/01/22 06:41:44;;;;;;;17.77;10.45;;;0.50;99.90;;;;;;5230569;28;20029;-73
2022/01/22 06:44:24;;;;;;;15.93;9.70;;;0.70;99.90;;;;;;5230468;28;20112;-73
2022/01/22 06:46:55;;;;;;;67.75;41.78;;;0.70;99.90;;;;;;5230274;28;20029;-72
2022/01/22 06:49:26;;;;;;;21.73;12.02;;;0.70;99.90;;;;;;5230295;28;20033;-73
2022/01/22 06:51:57;;;;;;;14.63;7.45;;;0.70;99.90;;;;;;5230453;28;20104;-73
2022/01/22 06:54:28;;;;;;;27.08;16.45;;;0.60;99.90;;;;;;5230249;28;20024;-73
2022/01/22 06:56:59;;;;;;;16.42;7.70;;;0.70;99.90;;;;;;5230335;28;20095;-73
2022/01/22 06:59:30;;;;;;;16.48;7.57;;;0.90;99.90;;;;;;5230214;28;20154;-73
2022/01/22 07:02:01;;;;;;;11.07;6.10;;;1.00;99.90;;;;;;5229722;28;20056;-73
2022/01/22 07:04:36;;;;;;;12.20;7.20;;;1.00;99.90;;;;;;5230147;28;20404;-73
2022/01/22 07:07:09;;;;;;;9.75;5.65;;;1.00;99.90;;;;;;5230210;28;20533;-74
2022/01/22 07:09:40;;;;;;;11.75;5.93;;;1.00;99.90;;;;;;5230451;28;20104;-73
2022/01/22 07:12:13;;;;;;;10.43;6.32;;;1.10;99.90;;;;;;5226623;28;20103;-73
2022/01/22 07:14:48;;;;;;;51.17;23.75;;;1.10;99.90;;;;;;5229092;28;20033;-74
2022/01/22 07:17:19;;;;;;;11.95;5.55;;;0.90;99.90;;;;;;5228634;28;20115;-73
2022/01/22 07:19:52;;;;;;;64.20;34.92;;;0.80;99.90;;;;;;5226756;28;20104;-73
2022/01/22 07:22:37;;;;;;;9.98;4.70;;;0.80;99.90;;;;;;5221317;28;20451;-73
2022/01/22 07:25:17;;;;;;;6.00;3.30;;;0.90;99.90;;;;;;5225363;28;20053;-73
2022/01/22 07:27:49;;;;;;;94.22;29.38;;;0.90;99.90;;;;;;5228609;28;20459;-73
2022/01/22 07:30:20;;;;;;;8.02;4.38;;;1.10;99.90;;;;;;5229189;28;20025;-73
2022/01/22 07:32:51;;;;;;;4.28;2.45;;;1.00;99.90;;;;;;5225083;28;20039;-75
2022/01/22 07:35:21;;;;;;;4.70;2.70;;;1.20;99.90;;;;;;5226272;28;20026;-76
2022/01/22 07:37:52;;;;;;;8.90;4.78;;;1.30;99.90;;;;;;5228376;28;20032;-74
2022/01/22 07:40:23;;;;;;;9.68;3.97;;;1.20;99.90;;;;;;5228087;28;20760;-75
2022/01/22 07:42:54;;;;;;;7.55;3.83;;;1.20;99.90;;;;;;5227106;28;20821;-74
2022/01/22 07:45:25;;;;;;;6.00;2.92;;;1.10;99.90;;;;;;5223844;28;20021;-73
2022/01/22 07:47:56;;;;;;;4.18;2.60;;;0.90;99.90;;;;;;5227482;28;20021;-73
2022/01/22 07:50:27;;;;;;;7.75;4.10;;;1.30;99.90;;;;;;5227499;28;20025;-73
2022/01/22 07:53:02;;;;;;;8.20;4.18;;;1.20;99.90;;;;;;5219131;28;20029;-73
2022/01/22 07:55:32;;;;;;;5.38;3.05;;;1.40;99.90;;;;;;5227127;28;20017;-72
2022/01/22 07:58:03;;;;;;;5.20;3.10;;;1.10;99.90;;;;;;5228053;28;20361;-74
2022/01/22 08:00:34;;;;;;;6.18;3.50;;;1.40;99.90;;;;;;5227967;28;20090;-73
2022/01/22 08:03:06;;;;;;;4.80;2.20;;;1.60;99.90;;;;;;5232146;28;20052;-79
2022/01/22 08:05:37;;;;;;;5.68;2.55;;;1.30;99.90;;;;;;5234673;28;20028;-73
2022/01/22 08:08:08;;;;;;;6.20;2.42;;;1.40;99.90;;;;;;5228550;28;20431;-73
2022/01/22 08:10:39;;;;;;;6.13;2.53;;;1.50;99.90;;;;;;5228978;28;20025;-73
2022/01/22 08:13:19;;;;;;;3.28;1.85;;;1.40;99.90;;;;;;5228752;28;20090;-73
2022/01/22 08:15:49;;;;;;;6.27;3.50;;;1.20;99.90;;;;;;5228592;28;20033;-73
2022/01/22 08:18:20;;;;;;;6.75;3.53;;;1.10;99.90;;;;;;5228351;28;20079;-73
2022/01/22 08:20:51;;;;;;;8.00;2.30;;;1.40;99.90;;;;;;5228455;28;20025;-73
2022/01/22 08:23:23;;;;;;;8.30;1.75;;;1.60;99.90;;;;;;5228141;28;20033;-73
2022/01/22 08:25:54;;;;;;;4.47;2.40;;;2.20;99.90;;;;;;5228026;28;20107;-73
2022/01/22 08:31:24;;;;;;;5.85;3.15;;;3.40;99.90;;;;;;5228328;28;20039;-71
2022/01/22 08:36:46;;;;;;;7.10;1.60;;;3.50;99.90;;;;;;5228602;28;20035;-75
2022/01/22 08:39:18;;;;;;;5.75;2.50;;;2.90;96.60;;;;;;5228170;28;20267;-72
2022/01/22 08:41:49;;;;;;;5.03;1.83;;;3.30;96.40;;;;;;5227869;28;20021;-73
2022/01/22 08:44:20;;;;;;;5.30;1.73;;;3.90;99.90;;;;;;5228065;28;20041;-74
2022/01/22 08:46:51;;;;;;;4.10;1.30;;;4.30;92.10;;;;;;5228108;28;20365;-74
2022/01/22 08:49:22;;;;;;;13.05;6.28;;;3.40;89.40;;;;;;5228064;28;20379;-73
2022/01/22 08:51:53;;;;;;;3.58;1.40;;;4.20;86.80;;;;;;5228077;28;20021;-75
2022/01/22 08:54:24;;;;;;;3.10;1.50;;;3.50;83.40;;;;;;5227872;28;20063;-75
2022/01/22 08:56:54;;;;;;;9.35;3.58;;;3.90;78.80;;;;;;5227926;28;20484;-75
2022/01/22 08:59:25;;;;;;;2.83;1.60;;;4.70;99.90;;;;;;5228098;28;20025;-75
2022/01/22 09:01:56;;;;;;;4.03;1.40;;;4.90;99.90;;;;;;5227845;28;20420;-75
2022/01/22 09:04:31;;;;;;;3.38;1.35;;;4.40;76.60;;;;;;5227845;28;20526;-75
2022/01/22 09:07:02;;;;;;;8.52;5.90;;;4.60;91.60;;;;;;5227779;28;20040;-74
2022/01/22 09:09:35;;;;;;;7.68;5.28;;;4.00;77.10;;;;;;5227680;28;20075;-73
2022/01/22 09:12:08;;;;;;;4.07;1.30;;;3.60;85.10;;;;;;5227698;28;20021;-75
2022/01/22 09:14:41;;;;;;;6.88;1.58;;;4.70;91.10;;;;;;5227809;28;20013;-75
2022/01/22 09:17:12;;;;;;;6.75;2.10;;;5.20;89.30;;;;;;5227738;28;20333;-75
2022/01/22 09:19:46;;;;;;;6.65;2.90;;;5.40;87.00;;;;;;5224590;28;20014;-76
2022/01/22 09:22:17;;;;;;;3.58;2.08;;;5.40;84.80;;;;;;5222070;28;20356;-75
2022/01/22 09:24:48;;;;;;;9.13;5.45;;;5.70;84.90;;;;;;5227539;28;20047;-75
2022/01/22 09:27:20;;;;;;;2.03;0.93;;;6.20;82.00;;;;;;5227466;28;20021;-75
2022/01/22 09:29:51;;;;;;;5.38;2.40;;;4.30;78.70;;;;;;5227645;28;20052;-76
2022/01/22 09:32:21;;;;;;;3.95;1.05;;;4.50;80.00;;;;;;5227710;28;20021;-75
2022/01/22 09:34:52;;;;;;;7.57;3.85;;;4.70;77.10;;;;;;5227546;28;20029;-75
2022/01/22 09:37:23;;;;;;;2.63;1.05;;;4.70;73.60;;;;;;5227648;28;20400;-75
2022/01/22 09:39:54;;;;;;;6.45;1.30;;;5.90;80.70;;;;;;5227549;28;20029;-75
2022/01/22 09:42:25;;;;;;;8.05;3.88;;;5.30;71.70;;;;;;5227333;28;20464;-75
2022/01/22 09:44:55;;;;;;;2.80;1.10;;;5.00;74.20;;;;;;5227319;28;20021;-75
2022/01/22 09:47:27;;;;;;;13.70;8.43;;;4.90;75.40;;;;;;5227531;28;20113;-75
2022/01/22 09:49:58;;;;;;;5.00;2.78;;;4.60;73.80;;;;;;5227541;28;20061;-75
2022/01/22 09:52:29;;;;;;;2.60;1.10;;;5.10;71.40;;;;;;5227411;28;20029;-74
2022/01/22 09:55:00;;;;;;;3.28;1.20;;;4.20;72.90;;;;;;5227145;28;20029;-75
2022/01/22 09:57:34;;;;;;;1.92;0.93;;;4.60;73.80;;;;;;5227387;28;20066;-76
2022/01/22 10:00:11;;;;;;;1.42;0.75;;;5.60;70.50;;;;;;5227161;28;20479;-74
2022/01/22 10:02:53;;;;;;;2.08;1.13;;;6.20;71.20;;;;;;5226802;28;20476;-76
2022/01/22 10:05:30;;;;;;;159.55;70.07;;;6.40;68.00;;;;;;5220571;28;20120;-75
2022/01/22 10:08:34;;;;;;;19.80;9.57;;;5.90;70.30;;;;;;5221476;28;20029;-74
2022/01/22 10:11:17;;;;;;;2.75;1.38;;;5.70;70.80;;;;;;5224455;28;20356;-74
2022/01/22 10:13:51;;;;;;;3.55;1.10;;;7.20;74.00;;;;;;5223033;28;20017;-76
2022/01/22 10:16:23;;;;;;;5.80;1.13;;;6.00;68.30;;;;;;5230544;28;20029;-75
2022/01/22 10:19:21;;;;;;;3.00;1.42;;;6.30;68.40;;;;;;5230865;28;20025;-74
2022/01/22 10:21:57;;;;;;;2.65;1.00;;;5.40;67.90;;;;;;5230655;28;20415;-73
2022/01/22 10:24:42;;;;;;;3.55;1.40;;;4.80;72.00;;;;;;5230456;28;20036;-73
2022/01/22 10:27:31;;;;;;;2.35;0.90;;;4.00;72.20;;;;;;5230799;28;20024;-73
2022/01/22 10:30:11;;;;;;;2.33;1.17;;;4.30;74.60;;;;;;5230675;28;20036;-73
2022/01/22 10:35:18;;;;;;;2.50;1.38;;;4.30;75.00;;;;;;5230703;28;20025;-74
2022/01/22 10:38:01;;;;;;;1.75;0.98;;;4.10;73.20;;;;;;5230563;28;20033;-73
2022/01/22 10:40:36;;;;;;;4.57;1.83;;;3.80;71.90;;;;;;5229867;28;20124;-74
2022/01/22 10:43:34;;;;;;;5.13;2.38;;;5.40;72.50;;;;;;5230383;28;20486;-73
2022/01/22 10:49:04;;;;;;;3.25;1.10;;;4.60;71.30;;;;;;5229240;28;20503;-74
2022/01/22 10:51:53;;;;;;;2.72;0.95;;;4.80;72.00;;;;;;5226143;28;20048;-74
2022/01/22 10:54:29;;;;;;;5.32;2.50;;;4.40;72.70;;;;;;5218553;28;20032;-74
2022/01/22 10:57:20;;;;;;;5.30;1.85;;;4.50;72.20;;;;;;5219384;28;20033;-74
2022/01/22 10:59:56;;;;;;;8.93;3.55;;;4.50;71.60;;;;;;5226406;28;20028;-73
2022/01/22 11:02:38;;;;;;;3.03;1.20;;;4.80;72.50;;;;;;5228737;28;20045;-74
2022/01/22 11:05:09;;;;;;;7.93;2.65;;;5.00;69.50;;;;;;5224035;28;20037;-74
2022/01/22 11:07:40;;;;;;;35.30;15.82;;;5.40;69.60;;;;;;5220071;28;20013;-73
2022/01/22 11:10:14;;;;;;;27.20;13.13;;;5.60;67.50;;;;;;5221530;28;20156;-73
2022/01/22 11:12:44;;;;;;;10.63;3.30;;;6.50;67.00;;;;;;5229060;28;20062;-74
2022/01/22 11:15:15;;;;;;;3.20;1.20;;;5.40;65.50;;;;;;5229531;28;20099;-75
2022/01/22 11:17:47;;;;;;;1.70;0.90;;;5.40;66.90;;;;;;5229546;28;20029;-74
2022/01/22 11:20:19;;;;;;;2.65;1.35;;;6.90;66.10;;;;;;5229500;28;20028;-74
2022/01/22 11:22:51;;;;;;;2.63;1.20;;;6.50;62.60;;;;;;5225008;28;20033;-74
2022/01/22 11:25:23;;;;;;;6.15;3.42;;;4.50;64.70;;;;;;5217193;28;20040;-74
2022/01/22 11:27:55;;;;;;;4.22;1.48;;;4.90;69.90;;;;;;5224224;28;20233;-75
2022/01/22 11:30:28;;;;;;;5.35;2.28;;;5.30;69.40;;;;;;5208562;28;20132;-74
2022/01/22 11:33:05;;;;;;;3.90;1.88;;;5.30;79.80;;;;;;5208566;28;20501;-74
2022/01/22 11:35:35;;;;;;;3.97;1.10;;;4.90;78.50;;;;;;5208613;28;20104;-74
2022/01/22 11:38:10;;;;;;;11.77;6.90;;;4.40;71.40;;;;;;5211811;28;20515;-75
2022/01/22 11:40:41;;;;;;;4.75;1.63;;;4.00;77.70;;;;;;5227330;28;20009;-74
2022/01/22 11:43:14;;;;;;;5.30;2.80;;;4.00;76.40;;;;;;5226990;28;20044;-75
2022/01/22 11:45:51;;;;;;;5.20;2.20;;;4.00;76.60;;;;;;5228351;28;20064;-75
2022/01/22 11:48:25;;;;;;;3.45;1.73;;;4.10;76.00;;;;;;5228635;28;20100;-74
2022/01/22 11:51:23;;;;;;;8.88;5.38;;;4.40;83.10;;;;;;5228621;28;20056;-74
2022/01/22 11:53:59;;;;;;;6.45;2.28;;;4.70;87.90;;;;;;5228161;28;20032;-75
2022/01/22 11:56:40;;;;;;;8.15;2.13;;;4.30;83.70;;;;;;5228353;28;20114;-75
2022/01/22 11:59:21;;;;;;;3.03;1.88;;;4.30;81.30;;;;;;5228375;28;20025;-75
2022/01/22 12:01:56;;;;;;;4.53;2.28;;;3.80;85.30;;;;;;5227833;28;20049;-75
2022/01/22 12:04:46;;;;;;;7.80;2.35;;;3.90;97.10;;;;;;5228314;28;20078;-75
2022/01/22 12:07:19;;;;;;;5.15;2.58;;;4.00;95.70;;;;;;5228262;28;20020;-75
2022/01/22 12:09:54;;;;;;;5.13;2.00;;;4.00;91.40;;;;;;5228289;28;20032;-75
2022/01/22 12:15:30;;;;;;;6.78;2.92;;;4.20;94.60;;;;;;5228046;28;20029;-75
2022/01/22 12:18:03;;;;;;;7.53;3.35;;;4.20;99.90;;;;;;5227947;28;20036;-75
2022/01/22 12:23:16;;;;;;;7.82;2.78;;;3.50;96.90;;;;;;5227827;28;20029;-75
2022/01/22 12:25:49;;;;;;;4.03;2.03;;;3.80;99.90;;;;;;5227758;28;20032;-75
2022/01/22 12:28:42;;;;;;;4.00;1.48;;;3.60;99.90;;;;;;5227222;28;20021;-75
2022/01/22 12:31:19;;;;;;;5.15;1.77;;;3.50;98.90;;;;;;5227561;28;20474;-74
2022/01/22 12:33:53;;;;;;;3.35;1.42;;;3.40;99.90;;;;;;5226667;28;20482;-74
2022/01/22 12:36:39;;;;;;;4.97;1.90;;;3.20;98.80;;;;;;5226480;28;20377;-75
2022/01/22 12:39:17;;;;;;;3.95;1.48;;;3.50;99.90;;;;;;5226510;28;20028;-75
2022/01/22 12:41:55;;;;;;;3.90;1.20;;;3.50;99.80;;;;;;5226196;28;20100;-75
2022/01/22 12:44:36;;;;;;;3.17;1.30;;;3.70;88.70;;;;;;5227990;28;20033;-76
2022/01/22 12:47:10;;;;;;;;;;;3.60;92.30;;;;;;5228592;28;20460;-76
2022/01/22 12:49:43;;;;;;;5.10;1.92;;;3.90;96.10;;;;;;5227746;28;19904;-76
2022/01/22 12:52:13;;;;;;;5.82;2.33;;;3.30;94.70;;;;;;5209327;28;20510;-76
2022/01/22 12:54:48;;;;;;;5.63;2.53;;;3.50;94.60;;;;;;5227180;28;20043;-75
2022/01/22 12:57:20;;;;;;;4.05;2.03;;;3.30;95.40;;;;;;5227689;28;20021;-75
2022/01/22 13:00:14;;;;;;;5.03;2.15;;;3.10;97.00;;;;;;5227635;28;20024;-75
2022/01/22 13:02:54;;;;;;;6.38;2.13;;;3.30;90.30;;;;;;5227396;28;20414;-76
2022/01/22 13:05:26;;;;;;;7.97;3.58;;;3.00;99.30;;;;;;5227772;28;20369;-76
2022/01/22 13:08:01;;;;;;;6.93;2.65;;;3.20;95.10;;;;;;5227633;28;20013;-76
2022/01/22 13:10:44;;;;;;;7.68;2.58;;;3.40;95.40;;;;;;5227686;28;20025;-75
2022/01/22 13:13:18;;;;;;;4.40;2.20;;;3.50;93.50;;;;;;5227697;28;20503;-76
2022/01/22 13:16:01;;;;;;;5.38;2.35;;;3.40;95.50;;;;;;5227284;28;20064;-75
2022/01/22 13:18:41;;;;;;;4.78;1.95;;;3.20;93.10;;;;;;5227633;28;20032;-76
2022/01/22 13:21:13;;;;;;;5.68;2.88;;;3.30;95.50;;;;;;5227463;28;20491;-76
2022/01/22 13:23:47;;;;;;;6.70;2.53;;;3.50;90.70;;;;;;5227455;28;20070;-77
2022/01/22 13:26:17;;;;;;;7.47;2.30;;;3.50;98.30;;;;;;5227477;28;20021;-76
2022/01/22 13:28:48;;;;;;;7.93;3.50;;;3.40;89.40;;;;;;5227409;28;20499;-76
2022/01/22 13:31:19;;;;;;;3.30;1.38;;;3.40;88.20;;;;;;5227454;28;20096;-76
2022/01/22 13:37:15;;;;;;;6.82;2.92;;;3.40;91.10;;;;;;5227443;28;20021;-76
2022/01/22 13:45:22;;;;;;;8.55;3.40;;;3.50;92.00;;;;;;5231483;28;20444;-76
2022/01/22 13:47:55;;;;;;;4.97;2.10;;;3.20;85.50;;;;;;5231349;28;20342;-76
2022/01/22 13:50:26;;;;;;;4.15;1.77;;;3.50;84.80;;;;;;5231234;28;20021;-76
2022/01/22 13:52:57;;;;;;;5.13;2.35;;;3.30;86.80;;;;;;5231314;28;20460;-75
2022/01/22 13:55:28;;;;;;;6.80;3.05;;;3.20;91.90;;;;;;5230931;28;20051;-75
2022/01/22 13:57:59;;;;;;;7.78;3.40;;;3.10;87.40;;;;;;5231249;28;20028;-75
2022/01/22 14:00:30;;;;;;;3.63;1.35;;;3.10;91.40;;;;;;5231064;28;20019;-74
2022/01/22 14:05:37;;;;;;;6.18;1.30;;;2.40;92.20;;;;;;5231245;28;20026;-75
2022/01/22 14:08:09;;;;;;;2.90;1.27;;;2.90;92.30;;;;;;5231097;28;20350;-74
2022/01/22 14:10:41;;;;;;;37.60;18.52;;;3.00;96.40;;;;;;5231038;28;20029;-76
2022/01/22 14:13:13;;;;;;;6.13;3.05;;;2.20;89.00;;;;;;5227645;28;20025;-75
2022/01/22 14:15:45;;;;;;;3.72;1.17;;;2.30;91.10;;;;;;5222454;28;20024;-75
2022/01/22 14:18:23;;;;;;;10.18;5.95;;;2.30;85.30;;;;;;5226884;28;20021;-74
2022/01/22 14:21:06;;;;;;;2.75;0.80;;;2.10;86.60;;;;;;5215616;28;20046;-76
2022/01/22 14:23:39;;;;;;;4.70;2.50;;;2.30;87.00;;;;;;5209820;28;20120;-76
2022/01/22 14:26:16;;;;;;;5.85;1.60;;;2.60;93.50;;;;;;5207948;28;20014;-76
2022/01/22 14:28:48;;;;;;;3.78;1.48;;;2.80;92.70;;;;;;5209148;28;20036;-75
2022/01/22 14:31:53;;;;;;;8.88;4.63;;;2.70;84.70;;;;;;5209417;28;20101;-75
2022/01/22 14:34:39;;;;;;;12.85;7.13;;;2.50;90.30;;;;;;5208924;28;20033;-75
2022/01/22 14:37:30;;;;;;;10.40;5.22;;;2.50;93.80;;;;;;5209458;28;20037;-75
2022/01/22 14:45:54;;;;;;;24.30;9.13;;;2.70;84.20;;;;;;5209219;28;20045;-75
2022/01/22 14:48:25;;;;;;;9.00;4.68;;;2.60;99.90;;;;;;5191397;28;20087;-76
2022/01/22 14:50:56;;;;;;;7.20;3.75;;;2.30;99.90;;;;;;5209057;28;20033;-75
2022/01/22 14:53:27;;;;;;;10.95;4.45;;;2.40;99.90;;;;;;5208610;28;20021;-75
2022/01/22 14:56:00;;;;;;;1.95;1.00;;;2.30;99.90;;;;;;5208958;28;20068;-76
2022/01/22 14:58:31;;;;;;;1.92;1.10;;;2.30;99.90;;;;;;5191475;28;20473;-76
2022/01/22 15:01:02;;;;;;;14.15;8.25;;;2.20;99.40;;;;;;5208864;28;20029;-76
2022/01/22 15:03:32;;;;;;;17.08;8.40;;;2.10;99.90;;;;;;5208429;28;20409;-77
2022/01/22 15:06:03;;;;;;;32.45;18.08;;;1.90;99.90;;;;;;5209063;28;20025;-74
2022/01/22 15:08:34;;;;;;;15.98;8.85;;;2.20;99.90;;;;;;5208860;28;20025;-77
2022/01/22 15:11:05;;;;;;;108.68;45.92;;;2.10;99.90;;;;;;5208756;28;20024;-78
2022/01/22 15:13:36;;;;;;;11.75;4.53;;;1.80;99.90;;;;;;5208628;28;20057;-76
2022/01/22 15:16:08;;;;;;;24.48;13.52;;;1.60;99.90;;;;;;5208653;28;20014;-77
2022/01/22 15:21:12;;;;;;;125.20;48.35;;;0.80;99.90;;;;;;5208397;28;20109;-77
2022/01/22 15:23:43;;;;;;;19.42;8.00;;;1.20;99.90;;;;;;5208552;28;20033;-77